createdAt,value
2023-03-04T00:00:30.617Z,27.63
2023-03-04T00:02:57.497Z,19.80
2023-03-04T00:05:24.391Z,23.95
2023-03-04T00:07:51.267Z,14.70
2023-03-04T00:10:18.318Z,16.75
2023-03-04T00:12:45.208Z,19.38
2023-03-04T00:15:12.167Z,17.75
2023-03-04T00:17:39.120Z,19.60
2023-03-04T00:20:06.593Z,16.75
2023-03-04T00:22:33.895Z,10.75
2023-03-04T00:25:00.795Z,17.25
2023-03-04T00:27:27.638Z,20.23
2023-03-04T00:29:54.472Z,17.08
2023-03-04T00:32:21.378Z,19.83
2023-03-04T00:34:48.468Z,16.65
2023-03-04T00:37:15.550Z,23.85
2023-03-04T00:39:43.653Z,18.10
2023-03-04T00:42:10.531Z,22.65
2023-03-04T00:44:38.846Z,15.45
2023-03-04T00:47:05.787Z,19.73
2023-03-04T00:49:32.649Z,22.55
2023-03-04T00:51:59.457Z,13.73
2023-03-04T00:54:27.224Z,18.98
2023-03-04T00:56:54.131Z,18.00
2023-03-04T00:59:21.009Z,18.65
2023-03-04T01:01:47.832Z,20.08
2023-03-04T01:04:14.727Z,17.25
2023-03-04T01:06:41.574Z,17.05
2023-03-04T01:09:08.501Z,18.58
2023-03-04T01:11:36.314Z,46.97
2023-03-04T01:14:03.575Z,16.23
2023-03-04T01:16:30.457Z,14.75
2023-03-04T01:18:57.360Z,21.45
2023-03-04T01:21:24.307Z,26.13
2023-03-04T01:23:51.146Z,14.57
2023-03-04T01:26:18.072Z,11.43
2023-03-04T01:28:44.974Z,18.00
2023-03-04T01:31:11.841Z,16.90
2023-03-04T01:33:38.666Z,20.48
2023-03-04T01:36:05.779Z,27.63
2023-03-04T01:38:32.731Z,15.82
2023-03-04T01:40:59.798Z,14.60
2023-03-04T01:43:29.021Z,15.32
2023-03-04T01:45:58.072Z,15.55
2023-03-04T01:48:28.780Z,20.77
2023-03-04T01:50:55.792Z,16.08
2023-03-04T01:53:25.180Z,21.88
2023-03-04T01:55:57.681Z,22.88
2023-03-04T01:58:29.046Z,16.73
2023-03-04T02:00:56.715Z,15.53
2023-03-04T02:03:24.467Z,13.65
2023-03-04T02:05:53.395Z,25.55
2023-03-04T02:08:23.216Z,14.93
2023-03-04T02:10:51.336Z,14.18
2023-03-04T02:13:18.495Z,15.82
2023-03-04T02:15:46.548Z,20.50
2023-03-04T02:18:22.179Z,23.70
2023-03-04T02:21:12.217Z,15.65
2023-03-04T02:23:52.623Z,14.10
2023-03-04T02:26:22.772Z,14.30
2023-03-04T02:28:53.590Z,16.92
2023-03-04T02:31:30.302Z,18.70
2023-03-04T02:34:00.486Z,8.18
2023-03-04T02:36:29.194Z,13.80
2023-03-04T02:39:01.111Z,14.77
2023-03-04T02:41:30.521Z,10.90
2023-03-04T02:43:58.747Z,8.50
2023-03-04T02:46:27.076Z,10.07
2023-03-04T02:48:54.594Z,15.85
2023-03-04T02:51:21.808Z,13.15
2023-03-04T02:53:48.719Z,13.98
2023-03-04T02:56:15.822Z,21.08
2023-03-04T02:58:42.805Z,12.95
2023-03-04T03:01:11.868Z,12.85
2023-03-04T03:03:38.765Z,15.20
2023-03-04T03:06:05.938Z,12.95
2023-03-04T03:08:32.903Z,7.35
2023-03-04T03:11:01.397Z,9.40
2023-03-04T03:13:30.308Z,15.48
2023-03-04T03:15:57.189Z,15.27
2023-03-04T03:18:24.998Z,13.00
2023-03-04T03:20:51.849Z,12.07
2023-03-04T03:23:18.781Z,11.45
2023-03-04T03:25:45.636Z,12.88
2023-03-04T03:28:12.485Z,7.15
2023-03-04T03:30:39.435Z,16.55
2023-03-04T03:33:06.856Z,8.43
2023-03-04T03:35:34.249Z,12.63
2023-03-04T03:38:01.129Z,17.50
2023-03-04T03:40:27.995Z,13.57
2023-03-04T03:42:54.855Z,11.13
2023-03-04T03:45:21.823Z,9.30
2023-03-04T03:47:48.687Z,9.93
2023-03-04T03:50:15.882Z,13.70
2023-03-04T03:52:42.837Z,10.75
2023-03-04T03:55:10.283Z,10.95
2023-03-04T03:57:37.151Z,12.15
2023-03-04T04:00:05.293Z,16.02
2023-03-04T04:02:39.741Z,10.25
2023-03-04T04:05:07.800Z,9.73
2023-03-04T04:07:34.724Z,10.65
2023-03-04T04:10:01.626Z,17.92
2023-03-04T04:12:28.451Z,11.20
2023-03-04T04:14:55.319Z,12.20
2023-03-04T04:17:22.233Z,16.67
2023-03-04T04:19:49.098Z,9.15
2023-03-04T04:22:19.026Z,8.73
2023-03-04T04:24:45.918Z,12.00
2023-03-04T04:27:13.218Z,10.25
2023-03-04T04:29:40.937Z,13.07
2023-03-04T04:32:08.701Z,14.43
2023-03-04T04:34:35.841Z,11.25
2023-03-04T04:37:02.719Z,6.60
2023-03-04T04:39:29.613Z,8.15
2023-03-04T04:41:56.472Z,11.57
2023-03-04T04:44:23.335Z,16.45
2023-03-04T04:46:50.203Z,14.85
2023-03-04T04:49:17.129Z,13.32
2023-03-04T04:51:44.053Z,17.20
2023-03-04T04:54:12.548Z,11.25
2023-03-04T04:56:39.429Z,7.25
2023-03-04T04:59:08.535Z,11.55
2023-03-04T05:01:35.931Z,14.48
2023-03-04T05:04:02.901Z,13.40
2023-03-04T05:06:29.965Z,6.32
2023-03-04T05:08:56.955Z,14.85
2023-03-04T05:11:23.942Z,8.98
2023-03-04T05:13:51.480Z,11.85
2023-03-04T05:16:18.574Z,7.50
2023-03-04T05:18:45.782Z,5.88
2023-03-04T05:21:12.736Z,17.50
2023-03-04T05:23:41.860Z,18.42
2023-03-04T05:26:09.930Z,9.30
2023-03-04T05:28:36.850Z,15.45
2023-03-04T05:31:04.093Z,11.55
2023-03-04T05:33:31.189Z,13.25
2023-03-04T05:35:58.539Z,14.38
2023-03-04T05:38:25.820Z,8.05
2023-03-04T05:41:02.289Z,16.10
2023-03-04T05:43:29.597Z,13.40
2023-03-04T05:45:56.876Z,14.55
2023-03-04T05:48:24.360Z,14.68
2023-03-04T05:50:55.614Z,19.83
2023-03-04T05:53:22.976Z,6.80
2023-03-04T05:55:50.029Z,8.05
2023-03-04T05:58:17.309Z,11.32
2023-03-04T06:00:44.880Z,9.98
2023-03-04T06:03:16.804Z,8.10
2023-03-04T06:05:44.412Z,7.85
2023-03-04T06:08:12.560Z,12.73
2023-03-04T06:10:40.731Z,13.52
2023-03-04T06:13:08.575Z,16.25
2023-03-04T06:15:35.557Z,9.35
2023-03-04T06:18:02.625Z,17.38
2023-03-04T06:20:29.655Z,6.90
2023-03-04T06:22:56.570Z,18.85
2023-03-04T06:25:23.570Z,12.98
2023-03-04T06:27:50.982Z,11.95
2023-03-04T06:30:18.994Z,5.57
2023-03-04T06:32:47.490Z,8.25
2023-03-04T06:35:15.973Z,5.05
2023-03-04T06:37:43.441Z,10.00
2023-03-04T06:40:11.481Z,10.77
2023-03-04T06:42:38.377Z,9.90
2023-03-04T06:45:05.929Z,13.32
2023-03-04T06:47:33.168Z,14.65
2023-03-04T06:50:00.031Z,18.00
2023-03-04T06:52:27.008Z,9.48
2023-03-04T06:54:53.869Z,9.52
2023-03-04T06:57:20.704Z,10.43
2023-03-04T06:59:47.564Z,16.27
2023-03-04T07:02:14.548Z,11.95
2023-03-04T07:04:41.516Z,11.23
2023-03-04T07:07:08.348Z,12.60
2023-03-04T07:09:35.358Z,11.70
2023-03-04T07:12:03.719Z,9.73
2023-03-04T07:14:30.632Z,10.93
2023-03-04T07:16:58.247Z,9.00
2023-03-04T07:19:25.346Z,13.63
2023-03-04T07:21:52.192Z,9.50
2023-03-04T07:24:19.191Z,9.00
2023-03-04T07:26:46.022Z,11.10
2023-03-04T07:29:13.577Z,8.98
2023-03-04T07:31:40.484Z,8.18
2023-03-04T07:34:10.372Z,10.68
2023-03-04T07:36:37.989Z,11.23
2023-03-04T07:39:06.096Z,9.43
2023-03-04T07:41:36.240Z,12.60
2023-03-04T07:44:04.304Z,6.30
2023-03-04T07:46:31.179Z,10.88
2023-03-04T07:48:58.040Z,9.15
2023-03-04T07:51:26.983Z,3.13
2023-03-04T07:53:57.981Z,10.82
2023-03-04T07:56:29.069Z,5.40
2023-03-04T07:58:56.395Z,4.63
2023-03-04T08:01:26.528Z,11.13
2023-03-04T08:03:53.430Z,7.20
2023-03-04T08:06:22.050Z,3.63
2023-03-04T08:08:50.138Z,4.75
2023-03-04T08:11:20.850Z,8.70
2023-03-04T08:13:48.901Z,6.15
2023-03-04T08:16:17.844Z,2.97
2023-03-04T08:18:48.036Z,4.18
2023-03-04T08:21:16.492Z,7.47
2023-03-04T08:23:43.547Z,4.97
2023-03-04T08:26:13.797Z,7.35
2023-03-04T08:28:41.390Z,8.02
2023-03-04T08:31:08.441Z,5.80
2023-03-04T08:33:35.517Z,5.70
2023-03-04T08:36:02.486Z,10.00
2023-03-04T08:38:29.387Z,8.68
2023-03-04T08:40:57.019Z,5.05
2023-03-04T08:43:25.743Z,8.00
2023-03-04T08:45:54.275Z,8.50
2023-03-04T08:48:22.361Z,1.65
2023-03-04T08:50:50.654Z,6.22
2023-03-04T08:53:18.777Z,9.32
2023-03-04T08:55:45.891Z,3.78
2023-03-04T08:58:13.582Z,4.75
2023-03-04T09:00:43.886Z,5.65
2023-03-04T09:03:13.057Z,7.85
2023-03-04T09:05:40.037Z,10.43
2023-03-04T09:08:07.698Z,3.13
2023-03-04T09:10:34.571Z,7.68
2023-03-04T09:13:01.834Z,3.42
2023-03-04T09:15:28.836Z,3.33
2023-03-04T09:17:55.827Z,7.97
2023-03-04T09:20:23.185Z,3.33
2023-03-04T09:22:50.505Z,5.07
2023-03-04T09:25:17.542Z,1.63
2023-03-04T09:27:44.477Z,1.67
2023-03-04T09:30:12.330Z,4.63
2023-03-04T09:32:41.353Z,3.35
2023-03-04T09:35:10.119Z,5.68
2023-03-04T09:37:39.207Z,3.65
2023-03-04T09:40:09.317Z,3.70
2023-03-04T09:42:40.946Z,4.15
2023-03-04T09:45:08.701Z,4.28
2023-03-04T09:47:37.571Z,7.38
2023-03-04T09:50:11.214Z,5.03
2023-03-04T09:52:53.727Z,1.63
2023-03-04T09:57:54.421Z,3.17
2023-03-04T10:00:32.663Z,6.07
2023-03-04T10:03:09.871Z,2.67
2023-03-04T10:05:51.863Z,1.38
2023-03-04T10:08:52.655Z,1.15
2023-03-04T10:11:28.090Z,1.65
2023-03-04T10:14:14.627Z,3.03
2023-03-04T10:17:07.459Z,4.88
2023-03-04T10:19:46.274Z,1.95
2023-03-04T10:22:38.987Z,7.80
2023-03-04T10:27:57.513Z,3.72
2023-03-04T10:30:50.967Z,3.83
2023-03-04T10:33:21.149Z,1.70
2023-03-04T10:36:05.326Z,4.57
2023-03-04T10:38:39.176Z,4.13
2023-03-04T10:41:17.131Z,3.45
2023-03-04T10:43:49.458Z,2.42
2023-03-04T10:46:16.574Z,7.25
2023-03-04T10:48:44.813Z,4.78
2023-03-04T10:51:16.438Z,6.22
2023-03-04T10:53:43.774Z,4.07
2023-03-04T10:56:35.536Z,7.72
2023-03-04T10:59:42.747Z,2.70
2023-03-04T11:02:31.745Z,4.30
2023-03-04T11:05:17.687Z,5.90
2023-03-04T11:07:57.440Z,4.68
2023-03-04T11:10:36.868Z,4.32
2023-03-04T11:13:16.534Z,8.27
2023-03-04T11:16:00.785Z,2.78
2023-03-04T11:18:45.842Z,4.10
2023-03-04T11:21:20.369Z,5.07
2023-03-04T11:24:03.911Z,4.75
2023-03-04T11:26:38.506Z,4.57
2023-03-04T11:29:25.583Z,1.35
2023-03-04T11:32:09.466Z,1.35
2023-03-04T11:34:46.155Z,3.80
2023-03-04T11:37:23.201Z,2.95
2023-03-04T11:40:05.735Z,6.25
2023-03-04T11:45:28.444Z,5.55
2023-03-04T11:48:31.990Z,5.13
2023-03-04T11:53:38.854Z,9.07
2023-03-04T11:56:23.460Z,6.15
2023-03-04T11:59:05.903Z,6.57
2023-03-04T12:04:23.047Z,12.48
2023-03-04T12:07:07.586Z,6.13
2023-03-04T12:09:34.414Z,10.05
2023-03-04T12:12:10.696Z,4.10
2023-03-04T12:15:08.099Z,6.97
2023-03-04T12:18:02.420Z,7.30
2023-03-04T12:20:53.076Z,9.18
2023-03-04T12:23:41.704Z,11.18
2023-03-04T12:26:44.094Z,4.00
2023-03-04T12:29:37.749Z,9.18
2023-03-04T12:32:28.053Z,10.50
2023-03-04T12:35:13.635Z,7.32
2023-03-04T12:38:01.983Z,8.70
2023-03-04T12:40:34.725Z,10.98
2023-03-04T12:43:17.184Z,9.45
2023-03-04T12:48:36.671Z,13.15
2023-03-04T12:51:15.722Z,9.80
2023-03-04T12:54:07.585Z,9.80
2023-03-04T12:56:43.707Z,12.23
2023-03-04T12:59:19.342Z,10.27
2023-03-04T13:02:12.320Z,11.20
2023-03-04T13:05:04.870Z,14.45
2023-03-04T13:10:09.707Z,6.75
2023-03-04T13:12:48.936Z,18.30
2023-03-04T13:15:28.920Z,11.55
2023-03-04T13:17:58.492Z,13.57
2023-03-04T13:20:36.342Z,19.25
2023-03-04T13:23:13.664Z,14.23
2023-03-04T13:25:44.164Z,10.85
2023-03-04T13:28:11.228Z,11.52
2023-03-04T13:30:38.293Z,15.32
2023-03-04T13:33:11.551Z,13.38
2023-03-04T13:35:47.823Z,9.73
2023-03-04T13:38:37.146Z,9.50
2023-03-04T13:41:15.864Z,12.77
2023-03-04T13:43:52.102Z,16.80
2023-03-04T13:46:19.423Z,10.63
2023-03-04T13:48:52.790Z,14.63
2023-03-04T13:51:41.415Z,11.27
2023-03-04T13:54:13.907Z,9.68
2023-03-04T13:56:46.797Z,8.80
2023-03-04T13:59:21.446Z,10.77
2023-03-04T14:01:49.912Z,6.72
2023-03-04T14:04:21.353Z,10.65
2023-03-04T14:06:54.032Z,6.70
2023-03-04T14:09:32.269Z,11.30
2023-03-04T14:12:03.783Z,5.72
2023-03-04T14:14:42.588Z,8.13
2023-03-04T14:17:19.065Z,2.92
2023-03-04T14:19:47.501Z,7.57
2023-03-04T14:22:30.889Z,4.88
2023-03-04T14:25:22.241Z,5.78
2023-03-04T14:27:49.286Z,4.28
2023-03-04T14:30:41.600Z,3.45
2023-03-04T14:33:16.150Z,4.60
2023-03-04T14:35:49.583Z,4.00
2023-03-04T14:38:31.915Z,6.40
2023-03-04T14:41:27.944Z,2.88
2023-03-04T14:44:17.385Z,2.15
2023-03-04T14:47:06.475Z,6.55
2023-03-04T14:49:36.538Z,3.65
2023-03-04T14:52:03.882Z,7.38
2023-03-04T14:54:37.448Z,5.13
2023-03-04T14:57:22.140Z,2.83
2023-03-04T14:59:49.034Z,3.03
2023-03-04T15:02:24.791Z,3.38
2023-03-04T15:04:51.780Z,2.45
2023-03-04T15:07:25.161Z,3.10
2023-03-04T15:09:55.533Z,4.75
2023-03-04T15:12:28.935Z,4.70
2023-03-04T15:15:02.216Z,4.28
2023-03-04T15:17:42.610Z,6.85
2023-03-04T15:20:09.539Z,7.20
2023-03-04T15:22:48.404Z,6.20
2023-03-04T15:25:16.313Z,3.97
2023-03-04T15:27:45.913Z,9.50
2023-03-04T15:30:18.727Z,7.55
2023-03-04T15:32:45.879Z,8.43
2023-03-04T15:35:14.699Z,8.05
2023-03-04T15:37:42.666Z,5.25
2023-03-04T15:40:30.556Z,5.97
2023-03-04T15:42:59.536Z,10.70
2023-03-04T15:45:38.326Z,5.07
2023-03-04T15:48:14.302Z,8.73
2023-03-04T15:50:47.428Z,8.48
2023-03-04T15:53:36.580Z,7.97
2023-03-04T15:56:08.160Z,8.05
2023-03-04T15:58:35.463Z,5.53
2023-03-04T16:01:03.060Z,5.82
2023-03-04T16:03:30.062Z,8.35
2023-03-04T16:05:57.784Z,4.25
2023-03-04T16:08:25.464Z,12.75
2023-03-04T16:10:53.633Z,2.15
2023-03-04T16:13:24.219Z,9.82
2023-03-04T16:15:51.534Z,8.82
2023-03-04T16:18:18.723Z,7.50
2023-03-04T16:20:48.808Z,5.32
2023-03-04T16:23:22.078Z,5.57
2023-03-04T16:25:52.118Z,6.72
2023-03-04T16:28:19.083Z,3.75
2023-03-04T16:30:46.305Z,9.25
2023-03-04T16:33:14.994Z,5.22
2023-03-04T16:35:42.722Z,9.05
2023-03-04T16:38:22.472Z,11.77
2023-03-04T16:40:49.607Z,17.15
2023-03-04T16:43:16.474Z,7.50
2023-03-04T16:45:44.200Z,12.63
2023-03-04T16:48:11.150Z,14.60
2023-03-04T16:50:38.804Z,15.55
2023-03-04T16:53:15.942Z,17.20
2023-03-04T16:55:42.791Z,11.93
2023-03-04T16:58:10.248Z,11.50
2023-03-04T17:00:37.151Z,9.38
2023-03-04T17:03:04.379Z,10.85
2023-03-04T17:05:33.401Z,9.32
2023-03-04T17:08:00.231Z,11.43
2023-03-04T17:10:27.467Z,7.63
2023-03-04T17:12:54.534Z,9.95
2023-03-04T17:15:21.782Z,21.60
2023-03-04T17:17:48.898Z,13.18
2023-03-04T17:20:17.856Z,11.95
2023-03-04T17:22:45.470Z,12.40
2023-03-04T17:25:13.521Z,11.52
2023-03-04T17:27:41.140Z,9.15
2023-03-04T17:30:11.541Z,11.45
2023-03-04T17:32:39.965Z,12.25
2023-03-04T17:35:08.288Z,12.02
2023-03-04T17:37:35.556Z,11.65
2023-03-04T17:40:05.874Z,16.92
2023-03-04T17:42:33.072Z,13.05
2023-03-04T17:44:59.977Z,10.73
2023-03-04T17:47:26.892Z,15.00
2023-03-04T17:49:53.845Z,20.77
2023-03-04T17:52:21.361Z,11.27
2023-03-04T17:54:48.324Z,10.73
2023-03-04T17:57:15.737Z,9.40
2023-03-04T17:59:42.695Z,9.98
2023-03-04T18:02:14.889Z,9.68
2023-03-04T18:07:09.486Z,8.18
2023-03-04T18:09:36.380Z,7.82
2023-03-04T18:12:03.372Z,14.65
2023-03-04T18:14:30.175Z,9.90
2023-03-04T18:16:57.217Z,13.77
2023-03-04T18:19:24.063Z,12.48
2023-03-04T18:21:50.934Z,11.20
2023-03-04T18:24:17.739Z,11.68
2023-03-04T18:26:44.699Z,10.13
2023-03-04T18:29:11.609Z,20.15
2023-03-04T18:31:38.631Z,10.32
2023-03-04T18:34:05.948Z,12.20
2023-03-04T18:36:33.451Z,12.95
2023-03-04T18:39:02.262Z,11.27
2023-03-04T18:41:29.370Z,13.98
2023-03-04T18:43:56.402Z,18.40
2023-03-04T18:46:31.583Z,6.80
2023-03-04T18:49:03.960Z,18.92
2023-03-04T18:51:31.399Z,18.38
2023-03-04T18:53:58.457Z,12.63
2023-03-04T18:56:37.517Z,9.02
2023-03-04T18:59:19.370Z,10.18
2023-03-04T19:01:47.595Z,6.25
2023-03-04T19:04:16.892Z,15.35
2023-03-04T19:06:43.996Z,9.38
2023-03-04T19:09:11.030Z,10.63
2023-03-04T19:11:37.968Z,13.55
2023-03-04T19:14:05.902Z,15.55
2023-03-04T19:16:32.884Z,15.65
2023-03-04T19:18:59.910Z,12.73
2023-03-04T19:21:26.876Z,14.80
2023-03-04T19:23:53.737Z,14.40
2023-03-04T19:26:20.669Z,13.25
2023-03-04T19:28:47.569Z,14.90
2023-03-04T19:31:14.528Z,13.30
2023-03-04T19:33:41.631Z,13.57
2023-03-04T19:36:09.953Z,21.60
2023-03-04T19:38:37.504Z,12.45
2023-03-04T19:41:09.596Z,13.48
2023-03-04T19:43:38.602Z,9.77
2023-03-04T19:46:09.512Z,19.20
2023-03-04T19:48:37.974Z,7.65
2023-03-04T19:51:14.348Z,7.32
2023-03-04T19:53:41.765Z,15.93
2023-03-04T19:56:08.978Z,21.38
2023-03-04T19:58:36.031Z,18.52
2023-03-04T20:01:03.454Z,11.93
2023-03-04T20:03:30.527Z,22.35
2023-03-04T20:06:08.891Z,9.10
2023-03-04T20:08:38.384Z,15.52
2023-03-04T20:11:12.581Z,8.48
2023-03-04T20:13:39.489Z,15.27
2023-03-04T20:16:10.827Z,13.70
2023-03-04T20:18:38.824Z,14.47
2023-03-04T20:21:06.169Z,17.23
2023-03-04T20:23:33.502Z,17.40
2023-03-04T20:26:00.876Z,10.02
2023-03-04T20:28:28.216Z,17.35
2023-03-04T20:31:13.572Z,6.50
2023-03-04T20:33:40.474Z,10.75
2023-03-04T20:36:07.577Z,11.07
2023-03-04T20:38:34.592Z,24.13
2023-03-04T20:41:01.485Z,15.20
2023-03-04T20:43:29.473Z,22.70
2023-03-04T20:45:56.425Z,17.60
2023-03-04T20:48:23.321Z,15.18
2023-03-04T20:50:50.128Z,15.75
2023-03-04T20:53:17.034Z,16.58
2023-03-04T20:55:43.849Z,19.92
2023-03-04T20:58:10.736Z,15.10
2023-03-04T21:00:38.322Z,14.05
2023-03-04T21:03:05.236Z,11.75
2023-03-04T21:05:32.104Z,13.52
2023-03-04T21:07:59.298Z,8.65
2023-03-04T21:10:26.116Z,16.15
2023-03-04T21:12:52.997Z,14.85
2023-03-04T21:15:19.932Z,18.88
2023-03-04T21:17:46.825Z,19.98
2023-03-04T21:20:15.218Z,15.57
2023-03-04T21:22:42.090Z,11.13
2023-03-04T21:25:09.200Z,20.83
2023-03-04T21:27:42.618Z,19.90
2023-03-04T21:30:11.296Z,19.40
2023-03-04T21:32:38.997Z,14.63
2023-03-04T21:35:06.311Z,12.10
2023-03-04T21:37:33.589Z,12.88
2023-03-04T21:40:02.303Z,20.30
2023-03-04T21:42:29.365Z,17.77
2023-03-04T21:44:56.299Z,23.30
2023-03-04T21:47:23.229Z,7.68
2023-03-04T21:49:50.663Z,12.43
2023-03-04T21:52:19.181Z,12.35
2023-03-04T21:54:46.374Z,11.60
2023-03-04T21:57:14.219Z,13.10
2023-03-04T21:59:41.084Z,11.02
2023-03-04T22:02:15.869Z,17.02
2023-03-04T22:04:42.918Z,12.20
2023-03-04T22:07:09.848Z,16.00
2023-03-04T22:09:36.744Z,11.13
2023-03-04T22:12:03.845Z,22.02
2023-03-04T22:14:32.061Z,29.10
2023-03-04T22:16:59.192Z,16.08
2023-03-04T22:19:30.224Z,17.80
2023-03-04T22:21:57.330Z,18.13
2023-03-04T22:24:24.228Z,19.48
2023-03-04T22:26:51.092Z,14.82
2023-03-04T22:29:18.295Z,15.45
2023-03-04T22:31:45.684Z,17.55
2023-03-04T22:34:14.846Z,7.75
2023-03-04T22:36:46.593Z,9.60
2023-03-04T22:39:15.679Z,12.27
2023-03-04T22:41:42.667Z,6.72
2023-03-04T22:44:09.568Z,13.40
2023-03-04T22:46:39.371Z,15.98
2023-03-04T22:49:11.971Z,13.90
2023-03-04T22:51:41.552Z,15.02
2023-03-04T22:54:10.673Z,13.85
2023-03-04T22:56:39.143Z,14.25
2023-03-04T22:59:06.132Z,15.18
2023-03-04T23:01:33.283Z,9.52
2023-03-04T23:04:00.240Z,13.35
2023-03-04T23:06:30.127Z,14.40
2023-03-04T23:08:58.463Z,15.13
2023-03-04T23:11:30.968Z,27.38
2023-03-04T23:13:58.436Z,17.20
2023-03-04T23:16:27.818Z,10.48
2023-03-04T23:18:54.847Z,16.85
2023-03-04T23:21:23.938Z,13.82
2023-03-04T23:23:51.940Z,13.18
2023-03-04T23:26:22.162Z,19.20
2023-03-04T23:28:49.737Z,14.52
2023-03-04T23:31:16.923Z,13.50
2023-03-04T23:33:46.046Z,11.27
2023-03-04T23:36:15.546Z,14.20
2023-03-04T23:38:45.074Z,9.90
2023-03-04T23:41:13.677Z,14.70
2023-03-04T23:43:40.633Z,5.63
2023-03-04T23:46:09.370Z,16.40
2023-03-04T23:48:36.289Z,8.18
2023-03-04T23:51:03.445Z,8.75
2023-03-04T23:53:30.408Z,10.95
2023-03-04T23:55:57.223Z,7.50
2023-03-04T23:58:24.066Z,11.40
